createdAt,value
2022-09-28T00:00:58.951Z,95966.81
2022-09-28T00:03:25.409Z,95962.41
2022-09-28T00:05:51.813Z,95953.66
2022-09-28T00:08:18.211Z,95967.94
2022-09-28T00:10:45.655Z,95960.44
2022-09-28T00:13:15.113Z,95953.28
2022-09-28T00:15:41.507Z,95949.91
2022-09-28T00:18:07.943Z,95943.03
2022-09-28T00:20:34.335Z,95935.75
2022-09-28T00:23:00.759Z,95929.75
2022-09-28T00:25:28.011Z,95928.38
2022-09-28T00:27:57.159Z,95930.41
2022-09-28T00:30:23.843Z,95924.31
2022-09-28T00:32:50.240Z,95912.97
2022-09-28T00:35:16.634Z,95922.69
2022-09-28T00:37:43.123Z,95915.81
2022-09-28T00:40:09.737Z,95918.06
2022-09-28T00:42:36.165Z,95908.78
2022-09-28T00:45:02.662Z,95901.38
2022-09-28T00:47:53.555Z,95892.19
2022-09-28T00:50:30.107Z,95884.97
2022-09-28T00:53:11.730Z,95884.72
2022-09-28T00:55:44.364Z,95885.78
2022-09-28T00:58:15.158Z,95875.41
2022-09-28T01:00:42.011Z,95867.16
2022-09-28T01:03:10.045Z,95853.47
2022-09-28T01:05:39.437Z,95856.31
2022-09-28T01:08:10.002Z,95852.88
2022-09-28T01:10:36.478Z,95846.81
2022-09-28T01:13:02.913Z,95851.47
2022-09-28T01:15:30.387Z,95847.91
2022-09-28T01:17:56.858Z,95836.22
2022-09-28T01:20:47.844Z,95845.19
2022-09-28T01:23:32.155Z,95838.41
2022-09-28T01:26:28.230Z,95839.53
2022-09-28T01:29:16.490Z,95841.31
2022-09-28T01:31:49.930Z,95843.66
2022-09-28T01:34:33.262Z,95823.09
2022-09-28T01:37:04.605Z,95823.78
2022-09-28T01:39:37.441Z,95816.91
2022-09-28T01:42:10.015Z,95806.50
2022-09-28T01:44:42.400Z,95810.59
2022-09-28T01:47:12.958Z,95803.59
2022-09-28T01:49:45.934Z,95798.53
2022-09-28T01:52:27.948Z,95793.69
2022-09-28T01:55:06.668Z,95789.50
2022-09-28T01:57:42.075Z,95775.16
2022-09-28T02:00:12.209Z,95777.47
2022-09-28T02:02:57.440Z,95769.13
2022-09-28T02:05:31.235Z,95763.75
2022-09-28T02:08:03.485Z,95755.81
2022-09-28T02:10:55.964Z,95747.09
2022-09-28T02:13:29.575Z,95751.41
2022-09-28T02:16:19.773Z,95747.69
2022-09-28T02:18:47.575Z,95753.13
2022-09-28T02:21:25.828Z,95734.97
2022-09-28T02:24:07.261Z,95742.16
2022-09-28T02:26:39.420Z,95724.69
2022-09-28T02:29:05.921Z,95724.53
2022-09-28T02:31:32.623Z,95717.47
2022-09-28T02:33:59.119Z,95729.31
2022-09-28T02:36:26.748Z,95722.66
2022-09-28T02:38:54.053Z,95715.59
2022-09-28T02:41:39.351Z,95715.84
2022-09-28T02:44:16.876Z,95714.78
2022-09-28T02:47:00.043Z,95715.16
2022-09-28T02:49:39.448Z,95699.16
2022-09-28T02:52:33.863Z,95687.78
2022-09-28T02:55:06.221Z,95678.38
2022-09-28T02:57:54.071Z,95677.72
2022-09-28T03:00:22.957Z,95675.22
2022-09-28T03:03:26.746Z,95675.25
2022-09-28T03:06:11.183Z,95670.56
2022-09-28T03:08:57.573Z,95664.44
2022-09-28T03:11:44.035Z,95653.00
2022-09-28T03:14:11.446Z,95657.19
2022-09-28T03:16:37.931Z,95646.19
2022-09-28T03:19:04.397Z,95648.13
2022-09-28T03:21:30.827Z,95641.25
2022-09-28T03:24:02.830Z,95640.97
2022-09-28T03:26:29.207Z,95636.47
2022-09-28T03:28:55.594Z,95631.88
2022-09-28T03:31:22.454Z,95623.13
2022-09-28T03:33:48.914Z,95623.16
2022-09-28T03:36:15.374Z,95607.78
2022-09-28T03:38:44.285Z,95602.25
2022-09-28T03:41:13.128Z,95606.94
2022-09-28T03:43:39.669Z,95611.25
2022-09-28T03:46:06.177Z,95601.03
2022-09-28T03:48:37.930Z,95589.16
2022-09-28T03:51:07.040Z,95590.88
2022-09-28T03:53:36.109Z,95595.50
2022-09-28T03:56:07.936Z,95590.75
2022-09-28T03:58:34.487Z,95582.94
2022-09-28T04:01:18.342Z,95578.84
2022-09-28T04:03:45.656Z,95572.88
2022-09-28T04:06:12.917Z,95567.84
2022-09-28T04:08:39.685Z,95558.00
2022-09-28T04:11:06.222Z,95556.28
2022-09-28T04:13:32.728Z,95550.41
2022-09-28T04:16:01.136Z,95549.72
2022-09-28T04:18:28.070Z,95531.03
2022-09-28T04:21:03.558Z,95536.41
2022-09-28T04:23:30.644Z,95534.09
2022-09-28T04:25:57.130Z,95529.63
2022-09-28T04:28:42.296Z,95528.78
2022-09-28T04:31:14.877Z,95529.38
2022-09-28T04:33:44.065Z,95527.66
2022-09-28T04:36:11.102Z,95526.78
2022-09-28T04:38:52.386Z,95499.94
2022-09-28T04:41:22.102Z,95508.56
2022-09-28T04:43:49.676Z,95526.69
2022-09-28T04:46:16.685Z,95534.03
2022-09-28T04:48:43.169Z,95533.03
2022-09-28T04:51:11.959Z,95527.97
2022-09-28T04:53:38.400Z,95522.34
2022-09-28T04:56:14.849Z,95518.53
2022-09-28T04:58:41.889Z,95521.69
2022-09-28T05:01:13.320Z,95524.31
2022-09-28T05:03:39.878Z,95535.47
2022-09-28T05:06:09.455Z,95529.03
2022-09-28T05:08:36.083Z,95535.03
2022-09-28T05:11:07.831Z,95530.69
2022-09-28T05:13:41.610Z,95520.63
2022-09-28T05:16:09.021Z,95524.59
2022-09-28T05:18:35.964Z,95514.59
2022-09-28T05:21:05.052Z,95522.22
2022-09-28T05:23:32.757Z,95495.31
2022-09-28T05:26:01.979Z,95514.44
2022-09-28T05:28:30.759Z,95535.31
2022-09-28T05:31:02.226Z,95537.56
2022-09-28T05:33:29.113Z,95525.22
2022-09-28T05:36:00.788Z,95523.97
2022-09-28T05:38:27.717Z,95512.13
2022-09-28T05:40:54.221Z,95508.88
2022-09-28T05:43:22.991Z,95501.00
2022-09-28T05:45:54.346Z,95497.94
2022-09-28T05:48:21.928Z,95506.06
2022-09-28T05:50:52.457Z,95501.13
2022-09-28T05:53:19.226Z,95492.06
2022-09-28T05:55:45.756Z,95491.38
2022-09-28T05:58:12.153Z,95495.78
2022-09-28T06:00:38.619Z,95484.91
2022-09-28T06:03:09.713Z,95495.19
2022-09-28T06:05:37.380Z,95492.72
2022-09-28T06:08:05.260Z,95499.47
2022-09-28T06:10:35.056Z,95492.63
2022-09-28T06:13:01.840Z,95497.91
2022-09-28T06:15:30.707Z,95489.22
2022-09-28T06:17:57.855Z,95488.44
2022-09-28T06:20:26.337Z,95475.13
2022-09-28T06:22:53.780Z,95465.13
2022-09-28T06:25:21.658Z,95463.66
2022-09-28T06:27:59.624Z,95479.97
2022-09-28T06:30:30.449Z,95481.94
2022-09-28T06:32:59.049Z,95482.13
2022-09-28T06:35:27.530Z,95475.75
2022-09-28T06:37:54.284Z,95487.69
2022-09-28T06:40:21.753Z,95485.16
2022-09-28T06:43:03.321Z,95505.25
2022-09-28T06:45:30.484Z,95517.13
2022-09-28T06:47:59.134Z,95502.97
2022-09-28T06:50:35.897Z,95502.28
2022-09-28T06:53:02.341Z,95505.41
2022-09-28T06:55:29.883Z,95504.88
2022-09-28T06:58:01.537Z,95490.22
2022-09-28T07:00:29.468Z,95497.88
2022-09-28T07:02:55.916Z,95487.66
2022-09-28T07:05:27.182Z,95489.25
2022-09-28T07:07:57.503Z,95471.84
2022-09-28T07:10:29.441Z,95478.03
2022-09-28T07:12:57.066Z,95477.53
2022-09-28T07:15:24.613Z,95478.50
2022-09-28T07:18:05.316Z,95478.84
2022-09-28T07:20:49.805Z,95480.66
2022-09-28T07:23:19.809Z,95487.00
2022-09-28T07:25:47.872Z,95498.28
2022-09-28T07:28:15.197Z,95498.75
2022-09-28T07:30:44.175Z,95502.50
2022-09-28T07:33:14.312Z,95491.56
2022-09-28T07:35:42.148Z,95498.09
2022-09-28T07:38:13.255Z,95499.06
2022-09-28T07:40:58.342Z,95502.84
2022-09-28T07:43:24.921Z,95501.88
2022-09-28T07:45:54.084Z,95500.75
2022-09-28T07:48:21.672Z,95498.25
2022-09-28T07:50:53.403Z,95509.22
2022-09-28T07:53:21.411Z,95512.00
2022-09-28T07:56:02.045Z,95530.44
2022-09-28T07:58:28.555Z,95526.84
2022-09-28T08:00:55.006Z,95529.78
2022-09-28T08:03:24.287Z,95520.66
2022-09-28T08:05:50.711Z,95530.25
2022-09-28T08:08:18.489Z,95528.78
2022-09-28T08:10:47.196Z,95532.38
2022-09-28T08:13:16.276Z,95541.69
2022-09-28T08:15:42.841Z,95537.13
2022-09-28T08:18:09.816Z,95531.41
2022-09-28T08:20:54.780Z,95539.91
2022-09-28T08:23:21.237Z,95526.34
2022-09-28T08:25:51.017Z,95532.53
2022-09-28T08:28:17.825Z,95526.69
2022-09-28T08:30:45.639Z,95534.66
2022-09-28T08:33:17.889Z,95532.22
2022-09-28T08:35:45.921Z,95528.63
2022-09-28T08:38:13.284Z,95539.91
2022-09-28T08:40:46.232Z,95546.72
2022-09-28T08:43:39.496Z,95542.66
2022-09-28T08:46:07.217Z,95534.31
2022-09-28T08:49:13.492Z,95526.03
2022-09-28T08:51:54.385Z,95523.72
2022-09-28T08:54:27.014Z,95536.94
2022-09-28T08:57:11.728Z,95533.69
2022-09-28T08:59:58.349Z,95529.59
2022-09-28T09:02:39.231Z,95539.38
2022-09-28T09:05:13.362Z,95541.34
2022-09-28T09:07:58.622Z,95547.06
2022-09-28T09:10:28.538Z,95532.22
2022-09-28T09:13:13.928Z,95533.69
2022-09-28T09:15:54.039Z,95547.41
2022-09-28T09:18:40.032Z,95546.75
2022-09-28T09:21:26.324Z,95541.38
2022-09-28T09:23:56.806Z,95533.69
2022-09-28T09:26:55.541Z,95527.44
2022-09-28T09:29:29.353Z,95532.03
2022-09-28T09:31:56.959Z,95534.31
2022-09-28T09:34:47.975Z,95535.25
2022-09-28T09:37:46.707Z,95534.78
2022-09-28T09:40:31.004Z,95546.50
2022-09-28T09:43:17.384Z,95546.03
2022-09-28T09:46:08.147Z,95539.50
2022-09-28T09:48:49.207Z,95534.25
2022-09-28T09:51:15.588Z,95529.38
2022-09-28T09:53:52.678Z,95521.34
2022-09-28T09:56:26.321Z,95529.34
2022-09-28T09:59:01.100Z,95526.69
2022-09-28T10:01:34.999Z,95530.75
2022-09-28T10:04:07.581Z,95528.91
2022-09-28T10:06:37.333Z,95535.22
2022-09-28T10:09:13.615Z,95529.94
2022-09-28T10:11:44.984Z,95537.31
2022-09-28T10:14:23.470Z,95529.69
2022-09-28T10:16:53.620Z,95523.91
2022-09-28T10:19:31.972Z,95541.41
2022-09-28T10:22:02.159Z,95534.72
2022-09-28T10:24:34.186Z,95538.47
2022-09-28T10:27:13.320Z,95542.78
2022-09-28T10:30:02.775Z,95542.72
2022-09-28T10:32:44.435Z,95546.09
2022-09-28T10:35:22.048Z,95545.03
2022-09-28T10:38:07.627Z,95555.50
2022-09-28T10:40:46.640Z,95561.22
2022-09-28T10:43:49.746Z,95569.03
2022-09-28T10:46:23.670Z,95568.44
2022-09-28T10:48:53.945Z,95567.00
2022-09-28T10:51:20.848Z,95564.59
2022-09-28T10:54:05.656Z,95566.88
2022-09-28T10:56:40.204Z,95573.94
2022-09-28T10:59:28.451Z,95579.63
2022-09-28T11:02:02.148Z,95591.91
2022-09-28T11:04:33.268Z,95605.25
2022-09-28T11:07:02.077Z,95612.94
2022-09-28T11:09:31.332Z,95630.00
2022-09-28T11:12:05.929Z,95624.16
2022-09-28T11:14:42.117Z,95630.03
2022-09-28T11:17:33.498Z,95628.38
2022-09-28T11:20:23.546Z,95626.91
2022-09-28T11:23:14.465Z,95635.25
2022-09-28T11:25:41.734Z,95628.56
2022-09-28T11:28:24.467Z,95629.22
2022-09-28T11:30:53.228Z,95626.09
2022-09-28T11:33:41.291Z,95632.66
2022-09-28T11:36:07.782Z,95632.50
2022-09-28T11:38:46.026Z,95631.34
2022-09-28T11:41:43.195Z,95627.41
2022-09-28T11:44:41.269Z,95628.38
2022-09-28T11:47:23.458Z,95629.03
2022-09-28T11:50:01.084Z,95626.59
2022-09-28T11:52:47.603Z,95622.34
2022-09-28T11:55:46.654Z,95630.03
2022-09-28T11:58:34.723Z,95634.41
2022-09-28T12:01:18.077Z,95633.31
2022-09-28T12:03:50.857Z,95630.69
2022-09-28T12:06:38.114Z,95640.34
2022-09-28T12:09:17.408Z,95641.44
2022-09-28T12:11:48.839Z,95638.22
2022-09-28T12:14:30.694Z,95634.94
2022-09-28T12:17:07.312Z,95626.75
2022-09-28T12:19:42.438Z,95631.31
2022-09-28T12:22:34.738Z,95624.47
2022-09-28T12:25:03.849Z,95618.38
2022-09-28T12:27:40.028Z,95627.03
2022-09-28T12:30:14.621Z,95629.34
2022-09-28T12:33:27.056Z,95624.91
2022-09-28T12:35:58.844Z,95630.28
2022-09-28T12:38:46.019Z,95643.50
2022-09-28T12:41:52.187Z,95638.31
2022-09-28T12:44:36.969Z,95644.41
2022-09-28T12:47:30.704Z,95651.38
2022-09-28T12:53:04.798Z,95640.09
2022-09-28T12:56:02.124Z,95648.06
2022-09-28T12:59:13.631Z,95647.56
2022-09-28T13:01:54.482Z,95650.28
2022-09-28T13:04:35.246Z,95652.44
2022-09-28T13:07:01.662Z,95667.81
2022-09-28T13:09:31.349Z,95663.75
2022-09-28T13:12:15.588Z,95668.47
2022-09-28T13:15:12.541Z,95676.25
2022-09-28T13:18:11.003Z,95680.91
2022-09-28T13:20:46.708Z,95671.13
2022-09-28T13:23:26.205Z,95671.94
2022-09-28T13:26:07.152Z,95670.44
2022-09-28T13:28:35.540Z,95661.97
2022-09-28T13:31:03.942Z,95662.63
2022-09-28T13:33:38.231Z,95663.13
2022-09-28T13:36:33.187Z,95650.22
2022-09-28T13:39:01.034Z,95654.16
2022-09-28T13:41:50.578Z,95656.56
2022-09-28T13:44:34.800Z,95651.00
2022-09-28T13:47:08.491Z,95657.72
2022-09-28T13:50:16.423Z,95648.06
2022-09-28T13:52:50.876Z,95647.72
2022-09-28T13:55:38.650Z,95644.69
2022-09-28T13:58:33.487Z,95647.72
2022-09-28T14:01:07.534Z,95655.28
2022-09-28T14:03:53.802Z,95650.78
2022-09-28T14:06:22.966Z,95654.75
2022-09-28T14:08:52.521Z,95661.59
2022-09-28T14:11:34.796Z,95661.56
2022-09-28T14:14:08.707Z,95670.75
2022-09-28T14:16:36.869Z,95669.78
2022-09-28T14:19:15.732Z,95680.28
2022-09-28T14:22:04.091Z,95677.81
2022-09-28T14:24:30.485Z,95683.22
2022-09-28T14:27:07.461Z,95683.06
2022-09-28T14:29:41.229Z,95680.66
2022-09-28T14:32:10.652Z,95684.94
2022-09-28T14:34:45.421Z,95685.09
2022-09-28T14:37:45.847Z,95679.06
2022-09-28T14:41:10.929Z,95675.13
2022-09-28T14:43:57.559Z,95674.78
2022-09-28T14:46:30.926Z,95664.66
2022-09-28T14:49:08.474Z,95663.16
2022-09-28T14:51:35.410Z,95670.88
2022-09-28T14:54:17.655Z,95657.78
2022-09-28T14:56:53.513Z,95660.75
2022-09-28T14:59:30.465Z,95661.84
2022-09-28T15:02:24.783Z,95657.78
2022-09-28T15:05:16.081Z,95660.56
2022-09-28T15:07:49.548Z,95659.59
2022-09-28T15:10:33.852Z,95663.34
2022-09-28T15:13:08.289Z,95663.53
2022-09-28T15:15:38.909Z,95668.28
2022-09-28T15:18:30.782Z,95673.34
2022-09-28T15:20:57.799Z,95674.97
2022-09-28T15:23:34.546Z,95682.97
2022-09-28T15:26:07.060Z,95668.25
2022-09-28T15:28:35.260Z,95676.41
2022-09-28T15:31:04.540Z,95675.47
2022-09-28T15:33:52.099Z,95676.41
2022-09-28T15:36:30.910Z,95689.16
2022-09-28T15:39:00.898Z,95686.53
2022-09-28T15:41:28.462Z,95669.88
2022-09-28T15:44:28.965Z,95668.56
2022-09-28T15:47:23.785Z,95670.84
2022-09-28T15:49:58.544Z,95666.25
2022-09-28T15:52:39.852Z,95686.88
2022-09-28T15:55:20.828Z,95691.25
2022-09-28T15:57:47.861Z,95694.22
2022-09-28T16:00:25.479Z,95695.31
2022-09-28T16:03:03.714Z,95704.16
2022-09-28T16:05:35.704Z,95710.41
2022-09-28T16:08:04.612Z,95712.16
2022-09-28T16:10:34.367Z,95715.25
2022-09-28T16:13:20.563Z,95709.19
2022-09-28T16:15:58.140Z,95704.13
2022-09-28T16:18:26.689Z,95707.88
2022-09-28T16:20:56.133Z,95708.78
2022-09-28T16:23:34.056Z,95715.78
2022-09-28T16:26:02.049Z,95712.25
2022-09-28T16:28:37.402Z,95721.50
2022-09-28T16:31:13.027Z,95721.88
2022-09-28T16:33:52.584Z,95720.66
2022-09-28T16:36:22.399Z,95716.28
2022-09-28T16:38:54.287Z,95710.19
2022-09-28T16:41:24.765Z,95709.25
2022-09-28T16:43:59.277Z,95712.69
2022-09-28T16:46:32.471Z,95712.72
2022-09-28T16:49:03.438Z,95713.78
2022-09-28T16:51:29.998Z,95728.50
2022-09-28T16:54:20.440Z,95729.94
2022-09-28T16:56:46.836Z,95737.13
2022-09-28T16:59:14.005Z,95738.41
2022-09-28T17:01:43.952Z,95737.41
2022-09-28T17:04:12.897Z,95733.34
2022-09-28T17:06:43.656Z,95737.88
2022-09-28T17:09:15.443Z,95738.16
2022-09-28T17:11:42.491Z,95733.50
2022-09-28T17:14:09.724Z,95730.22
2022-09-28T17:19:28.679Z,95719.44
2022-09-28T17:21:55.623Z,95727.75
2022-09-28T17:24:22.354Z,95720.59
2022-09-28T17:26:51.498Z,95720.59
2022-09-28T17:29:19.411Z,95717.91
2022-09-28T17:31:47.796Z,95719.94
2022-09-28T17:34:17.206Z,95730.34
2022-09-28T17:36:45.138Z,95728.53
2022-09-28T17:39:17.617Z,95731.91
2022-09-28T17:41:47.076Z,95723.88
2022-09-28T17:44:16.040Z,95726.50
2022-09-28T17:46:47.694Z,95731.72
2022-09-28T17:49:14.961Z,95737.66
2022-09-28T17:51:42.265Z,95737.56
2022-09-28T17:54:09.454Z,95726.50
2022-09-28T17:56:36.867Z,95736.38
2022-09-28T17:59:06.193Z,95725.13
2022-09-28T18:01:38.958Z,95725.06
2022-09-28T18:04:13.160Z,95731.31
2022-09-28T18:06:45.559Z,95729.31
2022-09-28T18:09:14.838Z,95730.97
2022-09-28T18:11:45.324Z,95741.28
2022-09-28T18:14:11.854Z,95747.47
2022-09-28T18:16:38.704Z,95737.66
2022-09-28T18:19:05.143Z,95733.34
2022-09-28T18:21:32.792Z,95739.16
2022-09-28T18:23:59.330Z,95737.47
2022-09-28T18:26:25.786Z,95735.66
2022-09-28T18:28:56.511Z,95742.56
2022-09-28T18:31:23.073Z,95738.47
2022-09-28T18:33:49.900Z,95737.81
2022-09-28T18:36:16.383Z,95744.38
2022-09-28T18:38:42.814Z,95749.25
2022-09-28T18:41:15.673Z,95743.69
2022-09-28T18:43:48.767Z,95748.44
2022-09-28T18:46:15.921Z,95754.78
2022-09-28T18:48:43.900Z,95754.28
2022-09-28T18:51:12.217Z,95754.19
2022-09-28T18:53:39.792Z,95762.97
2022-09-28T18:56:09.245Z,95769.09
2022-09-28T18:58:37.305Z,95766.63
2022-09-28T19:01:33.066Z,95774.97
2022-09-28T19:04:01.658Z,95783.84
2022-09-28T19:06:31.821Z,95783.25
2022-09-28T19:08:58.638Z,95790.28
2022-09-28T19:11:25.458Z,95799.13
2022-09-28T19:13:54.450Z,95803.31
2022-09-28T19:16:24.296Z,95799.22
2022-09-28T19:18:52.391Z,95803.00
2022-09-28T19:21:19.584Z,95800.03
2022-09-28T19:23:49.737Z,95798.97
2022-09-28T19:26:22.658Z,95805.25
2022-09-28T19:28:49.709Z,95807.13
2022-09-28T19:31:16.306Z,95809.47
2022-09-28T19:33:46.414Z,95813.97
2022-09-28T19:36:18.437Z,95812.94
2022-09-28T19:38:45.875Z,95827.59
2022-09-28T19:41:39.334Z,95825.56
2022-09-28T19:44:24.289Z,95828.47
2022-09-28T19:46:57.989Z,95830.78
2022-09-28T19:49:26.746Z,95838.56
2022-09-28T19:52:15.015Z,95836.91
2022-09-28T19:54:44.484Z,95836.09
2022-09-28T19:57:12.507Z,95834.16
2022-09-28T19:59:41.272Z,95843.22
2022-09-28T20:02:10.235Z,95843.59
2022-09-28T20:04:36.850Z,95848.13
2022-09-28T20:07:05.239Z,95851.72
2022-09-28T20:09:32.381Z,95852.78
2022-09-28T20:11:58.864Z,95858.34
2022-09-28T20:14:26.549Z,95855.66
2022-09-28T20:16:58.424Z,95863.41
2022-09-28T20:19:24.981Z,95870.25
2022-09-28T20:21:53.862Z,95877.00
2022-09-28T20:24:20.294Z,95878.84
2022-09-28T20:26:46.828Z,95882.19
2022-09-28T20:29:13.600Z,95881.13
2022-09-28T20:31:40.401Z,95886.88
2022-09-28T20:34:09.469Z,95889.28
2022-09-28T20:36:36.168Z,95889.34
2022-09-28T20:39:03.281Z,95896.88
2022-09-28T20:41:36.915Z,95903.06
2022-09-28T20:44:06.296Z,95900.13
2022-09-28T20:46:34.925Z,95904.81
2022-09-28T20:49:01.679Z,95910.03
2022-09-28T20:51:28.467Z,95908.22
2022-09-28T20:53:56.985Z,95918.84
2022-09-28T20:56:28.417Z,95921.34
2022-09-28T20:58:55.440Z,95926.56
2022-09-28T21:01:23.689Z,95932.91
2022-09-28T21:03:53.047Z,95933.16
2022-09-28T21:06:21.864Z,95922.22
2022-09-28T21:08:56.222Z,95933.47
2022-09-28T21:11:24.489Z,95933.03
2022-09-28T21:14:01.671Z,95938.56
2022-09-28T21:16:30.212Z,95933.78
2022-09-28T21:18:57.340Z,95934.66
2022-09-28T21:21:24.770Z,95927.09
2022-09-28T21:23:58.103Z,95930.25
2022-09-28T21:26:26.984Z,95938.75
2022-09-28T21:28:53.872Z,95938.31
2022-09-28T21:31:26.250Z,95936.97
2022-09-28T21:33:55.192Z,95931.63
2022-09-28T21:36:21.656Z,95935.16
2022-09-28T21:38:48.090Z,95941.91
2022-09-28T21:41:14.757Z,95946.13
2022-09-28T21:43:46.166Z,95943.97
2022-09-28T21:46:14.930Z,95945.34
2022-09-28T21:48:41.580Z,95951.97
2022-09-28T21:51:13.028Z,95945.22
2022-09-28T21:53:39.732Z,95950.31
2022-09-28T21:56:08.188Z,95948.94
2022-09-28T21:58:36.094Z,95956.44
2022-09-28T22:01:06.777Z,95962.66
2022-09-28T22:03:39.062Z,95973.06
2022-09-28T22:06:06.211Z,95970.75
2022-09-28T22:08:33.294Z,95967.75
2022-09-28T22:11:02.535Z,95971.88
2022-09-28T22:13:30.214Z,95976.28
2022-09-28T22:15:58.749Z,95975.28
2022-09-28T22:18:29.542Z,95964.34
2022-09-28T22:21:10.197Z,95968.31
2022-09-28T22:23:37.787Z,95966.84
2022-09-28T22:26:08.056Z,95966.97
2022-09-28T22:28:36.756Z,95967.91
2022-09-28T22:31:04.383Z,95955.44
2022-09-28T22:33:30.842Z,95970.63
2022-09-28T22:35:59.653Z,95961.88
2022-09-28T22:38:26.159Z,95973.78
2022-09-28T22:40:55.551Z,95971.31
2022-09-28T22:43:23.538Z,95963.41
2022-09-28T22:45:50.864Z,95968.19
2022-09-28T22:48:17.306Z,95955.34
2022-09-28T22:50:50.968Z,95962.19
2022-09-28T22:53:21.319Z,95961.13
2022-09-28T22:55:50.073Z,95953.69
2022-09-28T22:58:18.838Z,95961.38
2022-09-28T23:00:45.253Z,95956.72
2022-09-28T23:03:11.786Z,95959.31
2022-09-28T23:05:38.264Z,95947.97
2022-09-28T23:08:07.848Z,95947.66
2022-09-28T23:10:36.611Z,95949.84
2022-09-28T23:13:03.112Z,95954.50
2022-09-28T23:15:32.442Z,95942.59
2022-09-28T23:17:58.872Z,95952.59
2022-09-28T23:20:27.602Z,95942.75
2022-09-28T23:22:53.995Z,95945.63
2022-09-28T23:25:22.890Z,95950.97
2022-09-28T23:27:53.092Z,95958.94
2022-09-28T23:30:20.559Z,95952.19
2022-09-28T23:32:47.111Z,95953.44
2022-09-28T23:35:16.399Z,95952.88
2022-09-28T23:37:42.810Z,95949.59
2022-09-28T23:40:09.621Z,95951.22
2022-09-28T23:42:38.656Z,95956.44
2022-09-28T23:45:07.717Z,95964.81
2022-09-28T23:47:37.209Z,95958.38
2022-09-28T23:50:07.241Z,95947.00
2022-09-28T23:52:34.055Z,95958.75
2022-09-28T23:55:04.115Z,95948.63
2022-09-28T23:57:32.916Z,95951.81
2022-09-28T23:59:59.975Z,95940.56
